sensor_id;sensor_type;location;lat;lon;timestamp;temperature;humidity
66710;DHT22;53624;0.000;0.000;2023-05-27T00:00:34;18.70;99.90
66710;DHT22;53624;0.000;0.000;2023-05-27T00:03:01;18.80;99.90
66710;DHT22;53624;0.000;0.000;2023-05-27T00:05:29;18.80;99.90
66710;DHT22;53624;0.000;0.000;2023-05-27T00:07:57;18.80;99.90
66710;DHT22;53624;0.000;0.000;2023-05-27T00:10:25;18.80;99.90
66710;DHT22;53624;0.000;0.000;2023-05-27T00:12:52;18.80;99.90
66710;DHT22;53624;0.000;0.000;2023-05-27T00:15:20;18.80;99.90
66710;DHT22;53624;0.000;0.000;2023-05-27T00:17:47;18.80;99.90
66710;DHT22;53624;0.000;0.000;2023-05-27T00:20:15;18.90;99.90
66710;DHT22;53624;0.000;0.000;2023-05-27T00:22:43;18.80;99.90
66710;DHT22;53624;0.000;0.000;2023-05-27T00:25:12;18.60;99.90
66710;DHT22;53624;0.000;0.000;2023-05-27T00:27:39;18.40;99.90
66710;DHT22;53624;0.000;0.000;2023-05-27T00:30:07;18.40;99.90
66710;DHT22;53624;0.000;0.000;2023-05-27T00:32:35;18.20;99.90
66710;DHT22;53624;0.000;0.000;2023-05-27T00:35:03;18.10;99.90
66710;DHT22;53624;0.000;0.000;2023-05-27T00:37:30;17.90;99.90
66710;DHT22;53624;0.000;0.000;2023-05-27T00:39:57;18.00;99.90
66710;DHT22;53624;0.000;0.000;2023-05-27T00:42:27;18.10;99.90
66710;DHT22;53624;0.000;0.000;2023-05-27T00:44:54;18.10;99.90
66710;DHT22;53624;0.000;0.000;2023-05-27T00:47:22;18.20;99.90
66710;DHT22;53624;0.000;0.000;2023-05-27T00:49:50;18.30;99.90
66710;DHT22;53624;0.000;0.000;2023-05-27T00:52:19;18.30;99.90
66710;DHT22;53624;0.000;0.000;2023-05-27T00:54:46;18.30;99.90
66710;DHT22;53624;0.000;0.000;2023-05-27T00:57:14;18.20;99.90
66710;DHT22;53624;0.000;0.000;2023-05-27T00:59:43;18.10;99.90
66710;DHT22;53624;0.000;0.000;2023-05-27T01:02:11;18.10;99.90
66710;DHT22;53624;0.000;0.000;2023-05-27T01:04:39;18.20;99.90
66710;DHT22;53624;0.000;0.000;2023-05-27T01:07:09;18.20;99.90
66710;DHT22;53624;0.000;0.000;2023-05-27T01:09:39;18.20;99.90
66710;DHT22;53624;0.000;0.000;2023-05-27T01:12:10;18.10;99.90
66710;DHT22;53624;0.000;0.000;2023-05-27T01:14:39;18.00;99.90
66710;DHT22;53624;0.000;0.000;2023-05-27T01:17:09;18.00;99.90
66710;DHT22;53624;0.000;0.000;2023-05-27T01:19:39;18.00;99.90
66710;DHT22;53624;0.000;0.000;2023-05-27T01:22:09;18.00;99.90
66710;DHT22;53624;0.000;0.000;2023-05-27T01:24:39;18.00;99.90
66710;DHT22;53624;0.000;0.000;2023-05-27T01:27:08;17.90;99.90
66710;DHT22;53624;0.000;0.000;2023-05-27T01:29:38;17.90;99.90
66710;DHT22;53624;0.000;0.000;2023-05-27T01:32:08;17.90;99.90
66710;DHT22;53624;0.000;0.000;2023-05-27T01:34:36;17.90;99.90
66710;DHT22;53624;0.000;0.000;2023-05-27T01:37:07;17.90;99.90
66710;DHT22;53624;0.000;0.000;2023-05-27T01:39:36;17.90;99.90
66710;DHT22;53624;0.000;0.000;2023-05-27T01:42:06;17.90;99.90
66710;DHT22;53624;0.000;0.000;2023-05-27T01:44:33;17.90;99.90
66710;DHT22;53624;0.000;0.000;2023-05-27T01:47:02;17.90;99.90
66710;DHT22;53624;0.000;0.000;2023-05-27T01:49:29;17.90;99.90
66710;DHT22;53624;0.000;0.000;2023-05-27T01:51:57;17.90;99.90
66710;DHT22;53624;0.000;0.000;2023-05-27T01:54:25;17.90;99.90
66710;DHT22;53624;0.000;0.000;2023-05-27T01:56:52;17.90;99.90
66710;DHT22;53624;0.000;0.000;2023-05-27T01:59:21;17.90;99.90
66710;DHT22;53624;0.000;0.000;2023-05-27T02:01:48;17.90;99.90
66710;DHT22;53624;0.000;0.000;2023-05-27T02:04:17;17.80;99.90
66710;DHT22;53624;0.000;0.000;2023-05-27T02:06:45;17.80;99.90
66710;DHT22;53624;0.000;0.000;2023-05-27T02:09:12;17.80;99.90
66710;DHT22;53624;0.000;0.000;2023-05-27T02:11:40;17.80;99.90
66710;DHT22;53624;0.000;0.000;2023-05-27T02:14:07;17.80;99.90
66710;DHT22;53624;0.000;0.000;2023-05-27T02:16:36;17.80;99.90
66710;DHT22;53624;0.000;0.000;2023-05-27T02:19:05;17.80;99.90
66710;DHT22;53624;0.000;0.000;2023-05-27T02:21:32;17.70;99.90
66710;DHT22;53624;0.000;0.000;2023-05-27T02:24:01;17.50;99.90
66710;DHT22;53624;0.000;0.000;2023-05-27T02:26:29;17.60;99.90
66710;DHT22;53624;0.000;0.000;2023-05-27T02:28:56;17.40;99.90
66710;DHT22;53624;0.000;0.000;2023-05-27T02:31:24;17.50;99.90
66710;DHT22;53624;0.000;0.000;2023-05-27T02:33:53;17.50;99.90
66710;DHT22;53624;0.000;0.000;2023-05-27T02:36:21;17.60;99.90
66710;DHT22;53624;0.000;0.000;2023-05-27T02:38:50;17.60;99.90
66710;DHT22;53624;0.000;0.000;2023-05-27T02:41:17;17.60;99.90
66710;DHT22;53624;0.000;0.000;2023-05-27T02:43:45;17.60;99.90
66710;DHT22;53624;0.000;0.000;2023-05-27T02:46:12;17.50;99.90
66710;DHT22;53624;0.000;0.000;2023-05-27T02:48:39;17.50;99.90
66710;DHT22;53624;0.000;0.000;2023-05-27T02:51:08;17.50;99.90
66710;DHT22;53624;0.000;0.000;2023-05-27T02:53:36;17.40;99.90
66710;DHT22;53624;0.000;0.000;2023-05-27T02:56:04;17.40;99.90
66710;DHT22;53624;0.000;0.000;2023-05-27T02:58:31;17.30;99.90
66710;DHT22;53624;0.000;0.000;2023-05-27T03:00:59;17.30;99.90
66710;DHT22;53624;0.000;0.000;2023-05-27T03:03:26;17.30;99.90
66710;DHT22;53624;0.000;0.000;2023-05-27T03:05:54;17.10;99.90
66710;DHT22;53624;0.000;0.000;2023-05-27T03:08:23;17.00;99.90
66710;DHT22;53624;0.000;0.000;2023-05-27T03:10:50;17.10;99.90
66710;DHT22;53624;0.000;0.000;2023-05-27T03:13:18;16.90;99.90
66710;DHT22;53624;0.000;0.000;2023-05-27T03:15:45;16.70;99.90
66710;DHT22;53624;0.000;0.000;2023-05-27T03:18:13;16.90;99.90
66710;DHT22;53624;0.000;0.000;2023-05-27T03:20:40;17.00;99.90
66710;DHT22;53624;0.000;0.000;2023-05-27T03:23:08;17.00;99.90
66710;DHT22;53624;0.000;0.000;2023-05-27T03:25:37;17.00;99.90
66710;DHT22;53624;0.000;0.000;2023-05-27T03:28:05;17.00;99.90
66710;DHT22;53624;0.000;0.000;2023-05-27T03:30:32;17.10;99.90
66710;DHT22;53624;0.000;0.000;2023-05-27T03:33:01;17.10;99.90
66710;DHT22;53624;0.000;0.000;2023-05-27T03:35:34;17.10;99.90
66710;DHT22;53624;0.000;0.000;2023-05-27T03:38:04;17.10;99.90
66710;DHT22;53624;0.000;0.000;2023-05-27T03:40:32;17.10;99.90
66710;DHT22;53624;0.000;0.000;2023-05-27T03:43:04;17.10;99.90
66710;DHT22;53624;0.000;0.000;2023-05-27T03:45:32;17.20;99.90
66710;DHT22;53624;0.000;0.000;2023-05-27T03:48:00;17.10;99.90
66710;DHT22;53624;0.000;0.000;2023-05-27T03:50:27;17.10;99.90
66710;DHT22;53624;0.000;0.000;2023-05-27T03:52:55;17.20;99.90
66710;DHT22;53624;0.000;0.000;2023-05-27T03:55:23;17.20;99.90
66710;DHT22;53624;0.000;0.000;2023-05-27T03:57:50;17.20;99.90
66710;DHT22;53624;0.000;0.000;2023-05-27T04:00:19;17.20;99.90
66710;DHT22;53624;0.000;0.000;2023-05-27T04:02:51;17.30;99.90
66710;DHT22;53624;0.000;0.000;2023-05-27T04:05:19;17.30;99.90
66710;DHT22;53624;0.000;0.000;2023-05-27T04:07:47;17.30;99.90
66710;DHT22;53624;0.000;0.000;2023-05-27T04:10:14;17.30;99.90
66710;DHT22;53624;0.000;0.000;2023-05-27T04:12:42;17.40;99.90
66710;DHT22;53624;0.000;0.000;2023-05-27T04:15:09;17.30;99.90
66710;DHT22;53624;0.000;0.000;2023-05-27T04:17:38;17.30;99.90
66710;DHT22;53624;0.000;0.000;2023-05-27T04:20:09;17.30;99.90
66710;DHT22;53624;0.000;0.000;2023-05-27T04:22:41;17.30;99.90
66710;DHT22;53624;0.000;0.000;2023-05-27T04:25:09;17.40;99.90
66710;DHT22;53624;0.000;0.000;2023-05-27T04:27:54;17.40;99.90
66710;DHT22;53624;0.000;0.000;2023-05-27T04:30:21;17.50;99.90
66710;DHT22;53624;0.000;0.000;2023-05-27T04:32:51;17.50;99.90
66710;DHT22;53624;0.000;0.000;2023-05-27T04:35:18;17.40;99.90
66710;DHT22;53624;0.000;0.000;2023-05-27T04:37:48;17.40;99.90
66710;DHT22;53624;0.000;0.000;2023-05-27T04:40:17;17.50;99.90
66710;DHT22;53624;0.000;0.000;2023-05-27T04:43:07;17.50;99.90
66710;DHT22;53624;0.000;0.000;2023-05-27T04:45:38;17.50;99.90
66710;DHT22;53624;0.000;0.000;2023-05-27T04:48:07;17.50;99.90
66710;DHT22;53624;0.000;0.000;2023-05-27T04:50:34;17.50;99.90
66710;DHT22;53624;0.000;0.000;2023-05-27T04:53:02;17.50;99.90
66710;DHT22;53624;0.000;0.000;2023-05-27T04:55:29;17.50;99.90
66710;DHT22;53624;0.000;0.000;2023-05-27T04:57:57;17.50;99.90
66710;DHT22;53624;0.000;0.000;2023-05-27T05:00:24;17.60;99.90
66710;DHT22;53624;0.000;0.000;2023-05-27T05:03:05;17.60;99.90
66710;DHT22;53624;0.000;0.000;2023-05-27T05:05:35;17.50;99.90
66710;DHT22;53624;0.000;0.000;2023-05-27T05:08:03;17.50;99.90
66710;DHT22;53624;0.000;0.000;2023-05-27T05:10:31;17.60;99.90
66710;DHT22;53624;0.000;0.000;2023-05-27T05:12:59;17.70;99.90
66710;DHT22;53624;0.000;0.000;2023-05-27T05:15:26;17.70;99.90
66710;DHT22;53624;0.000;0.000;2023-05-27T05:17:55;17.70;99.90
66710;DHT22;53624;0.000;0.000;2023-05-27T05:20:23;17.80;99.90
66710;DHT22;53624;0.000;0.000;2023-05-27T05:22:53;17.80;99.90
66710;DHT22;53624;0.000;0.000;2023-05-27T05:25:20;17.80;99.90
66710;DHT22;53624;0.000;0.000;2023-05-27T05:27:50;17.80;99.90
66710;DHT22;53624;0.000;0.000;2023-05-27T05:30:18;17.90;99.90
66710;DHT22;53624;0.000;0.000;2023-05-27T05:32:45;17.90;99.90
66710;DHT22;53624;0.000;0.000;2023-05-27T05:35:14;17.90;99.90
66710;DHT22;53624;0.000;0.000;2023-05-27T05:37:46;17.90;99.90
66710;DHT22;53624;0.000;0.000;2023-05-27T05:40:16;18.00;99.90
66710;DHT22;53624;0.000;0.000;2023-05-27T05:42:56;18.00;99.90
66710;DHT22;53624;0.000;0.000;2023-05-27T05:45:23;18.10;99.90
66710;DHT22;53624;0.000;0.000;2023-05-27T05:47:53;18.00;99.90
66710;DHT22;53624;0.000;0.000;2023-05-27T05:50:24;18.20;99.90
66710;DHT22;53624;0.000;0.000;2023-05-27T05:52:52;18.30;99.90
66710;DHT22;53624;0.000;0.000;2023-05-27T05:55:21;18.40;99.90
66710;DHT22;53624;0.000;0.000;2023-05-27T05:57:49;18.50;99.90
66710;DHT22;53624;0.000;0.000;2023-05-27T06:00:17;18.60;99.90
66710;DHT22;53624;0.000;0.000;2023-05-27T06:02:44;18.70;99.90
66710;DHT22;53624;0.000;0.000;2023-05-27T06:05:29;18.80;99.90
66710;DHT22;53624;0.000;0.000;2023-05-27T06:07:56;18.80;99.90
66710;DHT22;53624;0.000;0.000;2023-05-27T06:10:25;19.00;99.90
66710;DHT22;53624;0.000;0.000;2023-05-27T06:12:53;19.10;99.90
66710;DHT22;53624;0.000;0.000;2023-05-27T06:15:21;19.50;99.90
66710;DHT22;53624;0.000;0.000;2023-05-27T06:17:49;19.90;99.90
66710;DHT22;53624;0.000;0.000;2023-05-27T06:20:16;20.40;99.90
66710;DHT22;53624;0.000;0.000;2023-05-27T06:22:44;20.60;99.90
66710;DHT22;53624;0.000;0.000;2023-05-27T06:25:32;20.70;99.90
66710;DHT22;53624;0.000;0.000;2023-05-27T06:28:04;20.90;99.90
66710;DHT22;53624;0.000;0.000;2023-05-27T06:30:32;21.10;99.90
66710;DHT22;53624;0.000;0.000;2023-05-27T06:33:02;21.30;99.90
66710;DHT22;53624;0.000;0.000;2023-05-27T06:35:31;21.60;99.90
66710;DHT22;53624;0.000;0.000;2023-05-27T06:37:59;21.90;99.90
66710;DHT22;53624;0.000;0.000;2023-05-27T06:40:26;22.20;99.90
66710;DHT22;53624;0.000;0.000;2023-05-27T06:42:55;22.60;99.90
66710;DHT22;53624;0.000;0.000;2023-05-27T06:45:41;23.00;99.60
66710;DHT22;53624;0.000;0.000;2023-05-27T06:48:38;23.30;98.50
66710;DHT22;53624;0.000;0.000;2023-05-27T06:51:05;23.60;97.70
66710;DHT22;53624;0.000;0.000;2023-05-27T06:53:33;23.80;97.20
66710;DHT22;53624;0.000;0.000;2023-05-27T06:56:11;23.90;96.80
66710;DHT22;53624;0.000;0.000;2023-05-27T06:59:12;23.90;96.30
66710;DHT22;53624;0.000;0.000;2023-05-27T07:01:40;24.00;96.20
66710;DHT22;53624;0.000;0.000;2023-05-27T07:04:11;24.00;96.00
66710;DHT22;53624;0.000;0.000;2023-05-27T07:06:54;24.00;95.80
66710;DHT22;53624;0.000;0.000;2023-05-27T07:09:21;24.10;95.80
66710;DHT22;53624;0.000;0.000;2023-05-27T07:11:49;24.10;95.60
66710;DHT22;53624;0.000;0.000;2023-05-27T07:14:47;24.10;95.50
66710;DHT22;53624;0.000;0.000;2023-05-27T07:17:15;24.20;95.30
66710;DHT22;53624;0.000;0.000;2023-05-27T07:19:43;24.50;94.90
66710;DHT22;53624;0.000;0.000;2023-05-27T07:22:15;24.70;94.60
66710;DHT22;53624;0.000;0.000;2023-05-27T07:24:43;24.90;94.20
66710;DHT22;53624;0.000;0.000;2023-05-27T07:27:11;25.10;93.80
66710;DHT22;53624;0.000;0.000;2023-05-27T07:29:42;25.30;93.40
66710;DHT22;53624;0.000;0.000;2023-05-27T07:32:32;25.50;93.10
66710;DHT22;53624;0.000;0.000;2023-05-27T07:35:00;25.70;92.80
66710;DHT22;53624;0.000;0.000;2023-05-27T07:37:27;25.90;92.50
66710;DHT22;53624;0.000;0.000;2023-05-27T07:39:56;26.10;92.10
66710;DHT22;53624;0.000;0.000;2023-05-27T07:42:24;26.10;91.70
66710;DHT22;53624;0.000;0.000;2023-05-27T07:44:51;26.30;91.60
66710;DHT22;53624;0.000;0.000;2023-05-27T07:47:18;26.50;91.40
66710;DHT22;53624;0.000;0.000;2023-05-27T07:49:50;27.10;90.70
66710;DHT22;53624;0.000;0.000;2023-05-27T07:52:42;27.40;89.10
66710;DHT22;53624;0.000;0.000;2023-05-27T07:55:24;27.00;89.70
66710;DHT22;53624;0.000;0.000;2023-05-27T07:57:53;26.40;91.10
66710;DHT22;53624;0.000;0.000;2023-05-27T08:00:21;26.10;90.50
66710;DHT22;53624;0.000;0.000;2023-05-27T08:02:51;25.70;91.60
66710;DHT22;53624;0.000;0.000;2023-05-27T08:05:24;25.50;91.50
66710;DHT22;53624;0.000;0.000;2023-05-27T08:08:18;25.60;91.80
66710;DHT22;53624;0.000;0.000;2023-05-27T08:11:03;25.70;91.30
66710;DHT22;53624;0.000;0.000;2023-05-27T08:13:50;25.70;91.80
66710;DHT22;53624;0.000;0.000;2023-05-27T08:16:41;25.70;93.10
66710;DHT22;53624;0.000;0.000;2023-05-27T08:19:34;25.40;91.50
66710;DHT22;53624;0.000;0.000;2023-05-27T08:22:23;25.60;92.30
66710;DHT22;53624;0.000;0.000;2023-05-27T08:24:56;25.60;91.10
66710;DHT22;53624;0.000;0.000;2023-05-27T08:27:48;25.90;91.20
66710;DHT22;53624;0.000;0.000;2023-05-27T08:30:23;25.50;91.50
66710;DHT22;53624;0.000;0.000;2023-05-27T08:33:00;25.50;91.50
66710;DHT22;53624;0.000;0.000;2023-05-27T08:35:27;25.60;91.80
66710;DHT22;53624;0.000;0.000;2023-05-27T08:37:56;25.70;91.80
66710;DHT22;53624;0.000;0.000;2023-05-27T08:40:27;25.70;91.70
66710;DHT22;53624;0.000;0.000;2023-05-27T08:42:55;25.20;91.90
66710;DHT22;53624;0.000;0.000;2023-05-27T08:45:23;25.50;92.20
66710;DHT22;53624;0.000;0.000;2023-05-27T08:47:51;25.50;92.00
66710;DHT22;53624;0.000;0.000;2023-05-27T08:50:23;25.60;92.00
66710;DHT22;53624;0.000;0.000;2023-05-27T08:52:52;25.80;92.70
66710;DHT22;53624;0.000;0.000;2023-05-27T08:55:23;25.90;91.70
66710;DHT22;53624;0.000;0.000;2023-05-27T08:57:54;25.90;91.70
66710;DHT22;53624;0.000;0.000;2023-05-27T09:00:22;26.00;91.90
66710;DHT22;53624;0.000;0.000;2023-05-27T09:02:52;26.00;91.10
66710;DHT22;53624;0.000;0.000;2023-05-27T09:05:26;26.00;91.50
66710;DHT22;53624;0.000;0.000;2023-05-27T09:07:53;26.20;91.10
66710;DHT22;53624;0.000;0.000;2023-05-27T09:10:22;26.30;90.70
66710;DHT22;53624;0.000;0.000;2023-05-27T09:12:50;26.20;89.30
66710;DHT22;53624;0.000;0.000;2023-05-27T09:15:17;25.80;90.90
66710;DHT22;53624;0.000;0.000;2023-05-27T09:17:45;25.90;91.50
66710;DHT22;53624;0.000;0.000;2023-05-27T09:20:13;26.10;90.90
66710;DHT22;53624;0.000;0.000;2023-05-27T09:22:41;26.10;90.60
66710;DHT22;53624;0.000;0.000;2023-05-27T09:25:08;25.90;91.50
66710;DHT22;53624;0.000;0.000;2023-05-27T09:27:37;26.00;90.10
66710;DHT22;53624;0.000;0.000;2023-05-27T09:30:06;26.30;90.10
66710;DHT22;53624;0.000;0.000;2023-05-27T09:32:34;26.40;91.30
66710;DHT22;53624;0.000;0.000;2023-05-27T09:35:01;26.30;87.40
66710;DHT22;53624;0.000;0.000;2023-05-27T09:37:30;26.30;89.80
66710;DHT22;53624;0.000;0.000;2023-05-27T09:39:59;26.40;88.90
66710;DHT22;53624;0.000;0.000;2023-05-27T09:42:26;26.30;87.70
66710;DHT22;53624;0.000;0.000;2023-05-27T09:44:55;26.10;89.10
66710;DHT22;53624;0.000;0.000;2023-05-27T09:47:23;26.20;90.60
66710;DHT22;53624;0.000;0.000;2023-05-27T09:49:51;26.10;88.80
66710;DHT22;53624;0.000;0.000;2023-05-27T09:52:19;26.00;90.30
66710;DHT22;53624;0.000;0.000;2023-05-27T09:54:48;26.30;89.30
66710;DHT22;53624;0.000;0.000;2023-05-27T09:57:16;26.40;88.20
66710;DHT22;53624;0.000;0.000;2023-05-27T09:59:45;26.30;89.20
66710;DHT22;53624;0.000;0.000;2023-05-27T10:02:16;26.40;89.20
66710;DHT22;53624;0.000;0.000;2023-05-27T10:04:45;26.30;89.80
66710;DHT22;53624;0.000;0.000;2023-05-27T10:07:15;26.70;88.60
66710;DHT22;53624;0.000;0.000;2023-05-27T10:09:45;26.70;87.50
66710;DHT22;53624;0.000;0.000;2023-05-27T10:12:13;26.40;88.30
66710;DHT22;53624;0.000;0.000;2023-05-27T10:14:41;26.50;87.20
66710;DHT22;53624;0.000;0.000;2023-05-27T10:17:12;26.40;89.30
66710;DHT22;53624;0.000;0.000;2023-05-27T10:19:55;26.40;87.50
66710;DHT22;53624;0.000;0.000;2023-05-27T10:22:23;26.50;85.90
66710;DHT22;53624;0.000;0.000;2023-05-27T10:24:50;26.60;89.20
66710;DHT22;53624;0.000;0.000;2023-05-27T10:27:19;26.60;90.30
66710;DHT22;53624;0.000;0.000;2023-05-27T10:29:56;26.70;90.00
66710;DHT22;53624;0.000;0.000;2023-05-27T10:32:24;26.20;89.70
66710;DHT22;53624;0.000;0.000;2023-05-27T10:34:52;26.30;90.10
66710;DHT22;53624;0.000;0.000;2023-05-27T10:37:23;26.40;90.80
66710;DHT22;53624;0.000;0.000;2023-05-27T10:39:55;26.70;89.40
66710;DHT22;53624;0.000;0.000;2023-05-27T10:42:22;26.80;90.80
66710;DHT22;53624;0.000;0.000;2023-05-27T10:45:01;26.90;90.50
66710;DHT22;53624;0.000;0.000;2023-05-27T10:47:30;26.80;90.10
66710;DHT22;53624;0.000;0.000;2023-05-27T10:49:58;26.70;90.50
66710;DHT22;53624;0.000;0.000;2023-05-27T10:52:38;26.80;90.70
66710;DHT22;53624;0.000;0.000;2023-05-27T10:55:06;26.90;91.00
66710;DHT22;53624;0.000;0.000;2023-05-27T10:57:34;26.90;92.10
66710;DHT22;53624;0.000;0.000;2023-05-27T11:00:19;27.00;90.80
66710;DHT22;53624;0.000;0.000;2023-05-27T11:02:58;27.10;90.60
66710;DHT22;53624;0.000;0.000;2023-05-27T11:05:27;27.10;90.60
66710;DHT22;53624;0.000;0.000;2023-05-27T11:07:56;27.10;89.10
66710;DHT22;53624;0.000;0.000;2023-05-27T11:10:25;27.10;87.60
66710;DHT22;53624;0.000;0.000;2023-05-27T11:12:53;27.10;90.00
66710;DHT22;53624;0.000;0.000;2023-05-27T11:15:20;27.20;91.90
66710;DHT22;53624;0.000;0.000;2023-05-27T11:17:48;27.30;87.80
66710;DHT22;53624;0.000;0.000;2023-05-27T11:20:16;27.20;87.90
66710;DHT22;53624;0.000;0.000;2023-05-27T11:22:49;27.10;90.70
66710;DHT22;53624;0.000;0.000;2023-05-27T11:25:17;27.00;90.60
66710;DHT22;53624;0.000;0.000;2023-05-27T11:27:45;27.10;92.10
66710;DHT22;53624;0.000;0.000;2023-05-27T11:30:13;27.30;90.50
66710;DHT22;53624;0.000;0.000;2023-05-27T11:32:41;27.40;91.10
66710;DHT22;53624;0.000;0.000;2023-05-27T11:35:15;27.30;90.10
66710;DHT22;53624;0.000;0.000;2023-05-27T11:37:45;27.20;90.60
66710;DHT22;53624;0.000;0.000;2023-05-27T11:40:12;27.40;90.20
66710;DHT22;53624;0.000;0.000;2023-05-27T11:42:44;27.60;90.20
66710;DHT22;53624;0.000;0.000;2023-05-27T11:45:16;27.90;89.90
66710;DHT22;53624;0.000;0.000;2023-05-27T11:47:44;28.20;89.50
66710;DHT22;53624;0.000;0.000;2023-05-27T11:50:14;28.40;89.10
66710;DHT22;53624;0.000;0.000;2023-05-27T11:52:51;28.50;88.90
66710;DHT22;53624;0.000;0.000;2023-05-27T11:55:19;28.70;88.90
66710;DHT22;53624;0.000;0.000;2023-05-27T11:57:48;28.80;88.70
66710;DHT22;53624;0.000;0.000;2023-05-27T12:00:15;28.90;88.70
66710;DHT22;53624;0.000;0.000;2023-05-27T12:02:43;29.00;88.80
66710;DHT22;53624;0.000;0.000;2023-05-27T12:05:10;29.00;88.50
66710;DHT22;53624;0.000;0.000;2023-05-27T12:07:38;29.10;88.50
66710;DHT22;53624;0.000;0.000;2023-05-27T12:10:06;29.20;88.40
66710;DHT22;53624;0.000;0.000;2023-05-27T12:12:34;29.20;88.30
66710;DHT22;53624;0.000;0.000;2023-05-27T12:15:04;29.30;88.30
66710;DHT22;53624;0.000;0.000;2023-05-27T12:17:31;29.40;88.10
66710;DHT22;53624;0.000;0.000;2023-05-27T12:19:59;29.40;88.20
66710;DHT22;53624;0.000;0.000;2023-05-27T12:22:26;29.50;88.50
66710;DHT22;53624;0.000;0.000;2023-05-27T12:24:54;29.60;88.60
66710;DHT22;53624;0.000;0.000;2023-05-27T12:27:21;29.60;88.60
66710;DHT22;53624;0.000;0.000;2023-05-27T12:29:48;29.70;88.40
66710;DHT22;53624;0.000;0.000;2023-05-27T12:32:17;29.80;88.50
66710;DHT22;53624;0.000;0.000;2023-05-27T12:34:45;29.80;88.30
66710;DHT22;53624;0.000;0.000;2023-05-27T12:37:12;29.90;88.30
66710;DHT22;53624;0.000;0.000;2023-05-27T12:39:40;29.90;88.30
66710;DHT22;53624;0.000;0.000;2023-05-27T12:42:07;30.00;88.50
66710;DHT22;53624;0.000;0.000;2023-05-27T12:44:34;30.00;88.40
66710;DHT22;53624;0.000;0.000;2023-05-27T12:47:02;30.10;88.50
66710;DHT22;53624;0.000;0.000;2023-05-27T12:49:31;30.10;88.60
66710;DHT22;53624;0.000;0.000;2023-05-27T12:51:58;30.20;88.60
66710;DHT22;53624;0.000;0.000;2023-05-27T12:54:26;30.30;88.70
66710;DHT22;53624;0.000;0.000;2023-05-27T12:56:54;30.30;88.80
66710;DHT22;53624;0.000;0.000;2023-05-27T12:59:22;30.40;88.80
66710;DHT22;53624;0.000;0.000;2023-05-27T13:01:49;30.40;88.90
66710;DHT22;53624;0.000;0.000;2023-05-27T13:04:16;30.50;89.00
66710;DHT22;53624;0.000;0.000;2023-05-27T13:06:45;30.50;89.10
66710;DHT22;53624;0.000;0.000;2023-05-27T13:09:13;30.60;89.20
66710;DHT22;53624;0.000;0.000;2023-05-27T13:11:42;30.60;89.10
66710;DHT22;53624;0.000;0.000;2023-05-27T13:14:09;30.70;89.20
66710;DHT22;53624;0.000;0.000;2023-05-27T13:16:36;30.70;89.30
66710;DHT22;53624;0.000;0.000;2023-05-27T13:19:04;30.80;89.40
66710;DHT22;53624;0.000;0.000;2023-05-27T13:21:31;30.80;89.50
66710;DHT22;53624;0.000;0.000;2023-05-27T13:24:00;30.80;89.50
66710;DHT22;53624;0.000;0.000;2023-05-27T13:26:28;30.90;89.40
66710;DHT22;53624;0.000;0.000;2023-05-27T13:28:56;31.00;89.60
66710;DHT22;53624;0.000;0.000;2023-05-27T13:31:23;31.00;89.50
66710;DHT22;53624;0.000;0.000;2023-05-27T13:33:51;31.00;89.70
66710;DHT22;53624;0.000;0.000;2023-05-27T13:36:18;31.00;89.90
66710;DHT22;53624;0.000;0.000;2023-05-27T13:38:46;31.00;90.00
66710;DHT22;53624;0.000;0.000;2023-05-27T13:41:14;31.00;90.10
66710;DHT22;53624;0.000;0.000;2023-05-27T13:43:42;30.90;90.20
66710;DHT22;53624;0.000;0.000;2023-05-27T13:46:09;31.00;90.30
66710;DHT22;53624;0.000;0.000;2023-05-27T13:48:37;31.00;90.20
66710;DHT22;53624;0.000;0.000;2023-05-27T13:51:04;31.00;90.20
66710;DHT22;53624;0.000;0.000;2023-05-27T13:53:32;31.10;90.30
66710;DHT22;53624;0.000;0.000;2023-05-27T13:56:00;31.10;90.30
66710;DHT22;53624;0.000;0.000;2023-05-27T13:58:28;31.20;90.30
66710;DHT22;53624;0.000;0.000;2023-05-27T14:00:56;31.30;90.30
66710;DHT22;53624;0.000;0.000;2023-05-27T14:03:24;31.30;90.20
66710;DHT22;53624;0.000;0.000;2023-05-27T14:05:51;31.30;90.30
66710;DHT22;53624;0.000;0.000;2023-05-27T14:08:18;31.40;90.30
66710;DHT22;53624;0.000;0.000;2023-05-27T14:10:46;31.30;90.30
66710;DHT22;53624;0.000;0.000;2023-05-27T14:13:13;31.30;90.20
66710;DHT22;53624;0.000;0.000;2023-05-27T14:15:42;31.30;90.20
66710;DHT22;53624;0.000;0.000;2023-05-27T14:18:10;31.30;90.40
66710;DHT22;53624;0.000;0.000;2023-05-27T14:20:37;31.10;90.50
66710;DHT22;53624;0.000;0.000;2023-05-27T14:23:05;31.10;90.60
66710;DHT22;53624;0.000;0.000;2023-05-27T14:25:36;31.00;90.60
66710;DHT22;53624;0.000;0.000;2023-05-27T14:28:04;31.00;90.70
66710;DHT22;53624;0.000;0.000;2023-05-27T14:30:32;30.90;90.70
66710;DHT22;53624;0.000;0.000;2023-05-27T14:33:04;30.90;90.90
66710;DHT22;53624;0.000;0.000;2023-05-27T14:35:32;30.80;90.90
66710;DHT22;53624;0.000;0.000;2023-05-27T14:38:00;30.70;91.00
66710;DHT22;53624;0.000;0.000;2023-05-27T14:40:28;30.70;91.10
66710;DHT22;53624;0.000;0.000;2023-05-27T14:42:55;30.60;91.20
66710;DHT22;53624;0.000;0.000;2023-05-27T14:45:22;30.60;91.20
66710;DHT22;53624;0.000;0.000;2023-05-27T14:47:50;30.60;91.10
66710;DHT22;53624;0.000;0.000;2023-05-27T14:50:19;30.60;91.20
66710;DHT22;53624;0.000;0.000;2023-05-27T14:52:48;30.50;91.30
66710;DHT22;53624;0.000;0.000;2023-05-27T14:55:15;30.40;91.40
66710;DHT22;53624;0.000;0.000;2023-05-27T14:57:43;30.30;91.50
66710;DHT22;53624;0.000;0.000;2023-05-27T15:00:10;30.30;91.50
66710;DHT22;53624;0.000;0.000;2023-05-27T15:02:38;30.30;91.50
66710;DHT22;53624;0.000;0.000;2023-05-27T15:05:06;30.30;91.50
66710;DHT22;53624;0.000;0.000;2023-05-27T15:07:35;30.30;91.40
66710;DHT22;53624;0.000;0.000;2023-05-27T15:10:02;30.40;91.50
66710;DHT22;53624;0.000;0.000;2023-05-27T15:12:37;30.40;91.60
66710;DHT22;53624;0.000;0.000;2023-05-27T15:15:06;30.30;91.50
66710;DHT22;53624;0.000;0.000;2023-05-27T15:17:33;30.30;91.60
66710;DHT22;53624;0.000;0.000;2023-05-27T15:20:01;30.30;91.50
66710;DHT22;53624;0.000;0.000;2023-05-27T15:22:29;30.30;91.60
66710;DHT22;53624;0.000;0.000;2023-05-27T15:24:58;30.30;91.60
66710;DHT22;53624;0.000;0.000;2023-05-27T15:27:26;30.30;91.70
66710;DHT22;53624;0.000;0.000;2023-05-27T15:29:53;30.20;91.70
66710;DHT22;53624;0.000;0.000;2023-05-27T15:32:20;30.20;91.80
66710;DHT22;53624;0.000;0.000;2023-05-27T15:34:48;30.20;91.80
66710;DHT22;53624;0.000;0.000;2023-05-27T15:37:16;30.20;91.80
66710;DHT22;53624;0.000;0.000;2023-05-27T15:39:43;30.10;91.80
66710;DHT22;53624;0.000;0.000;2023-05-27T15:42:12;30.10;91.90
66710;DHT22;53624;0.000;0.000;2023-05-27T15:44:39;30.10;91.90
66710;DHT22;53624;0.000;0.000;2023-05-27T15:47:07;30.00;92.00
66710;DHT22;53624;0.000;0.000;2023-05-27T15:49:35;30.00;92.00
66710;DHT22;53624;0.000;0.000;2023-05-27T15:52:02;29.90;91.90
66710;DHT22;53624;0.000;0.000;2023-05-27T15:54:31;29.90;92.00
66710;DHT22;53624;0.000;0.000;2023-05-27T15:56:58;29.80;92.10
66710;DHT22;53624;0.000;0.000;2023-05-27T15:59:29;29.70;92.30